createdAt,value
2023-03-15T00:00:21.194Z,3.92
2023-03-15T00:00:55.375Z,4.00
2023-03-15T00:01:28.169Z,3.30
2023-03-15T00:02:00.960Z,4.82
2023-03-15T00:02:33.220Z,4.13
2023-03-15T00:03:05.764Z,4.10
2023-03-15T00:03:40.242Z,4.25
2023-03-15T00:04:15.369Z,8.50
2023-03-15T00:04:47.558Z,7.78
2023-03-15T00:05:19.829Z,6.68
2023-03-15T00:05:54.753Z,4.70
2023-03-15T00:06:27.088Z,4.15
2023-03-15T00:06:59.520Z,3.83
2023-03-15T00:07:31.778Z,4.00
2023-03-15T00:08:04.716Z,4.60
2023-03-15T00:08:37.506Z,4.13
2023-03-15T00:09:10.247Z,3.65
2023-03-15T00:09:42.564Z,3.50
2023-03-15T00:10:14.993Z,3.80
2023-03-15T00:10:48.000Z,3.80
2023-03-15T00:11:20.774Z,3.33
2023-03-15T00:11:55.190Z,3.60
2023-03-15T00:12:27.450Z,3.72
2023-03-15T00:12:59.790Z,4.38
2023-03-15T00:13:32.454Z,4.10
2023-03-15T00:14:05.692Z,3.80
2023-03-15T00:14:38.081Z,3.38
2023-03-15T00:15:13.336Z,3.63
2023-03-15T00:15:47.060Z,3.47
2023-03-15T00:16:19.432Z,3.05
2023-03-15T00:16:51.913Z,3.00
2023-03-15T00:17:24.385Z,3.55
2023-03-15T00:17:57.104Z,3.63
2023-03-15T00:18:30.149Z,3.72
2023-03-15T00:19:02.651Z,2.90
2023-03-15T00:19:35.022Z,2.93
2023-03-15T00:20:08.174Z,2.50
2023-03-15T00:20:40.657Z,3.00
2023-03-15T00:21:13.197Z,3.45
2023-03-15T00:21:45.596Z,3.30
2023-03-15T00:22:18.042Z,3.50
2023-03-15T00:22:50.341Z,3.60
2023-03-15T00:23:23.208Z,3.70
2023-03-15T00:23:56.159Z,3.42
2023-03-15T00:24:28.544Z,3.72
2023-03-15T00:25:00.872Z,3.40
2023-03-15T00:25:33.550Z,3.25
2023-03-15T00:26:05.935Z,3.47
2023-03-15T00:26:38.761Z,3.80
2023-03-15T00:27:13.626Z,3.35
2023-03-15T00:27:45.933Z,3.45
2023-03-15T00:28:18.963Z,2.80
2023-03-15T00:28:51.312Z,2.40
2023-03-15T00:29:23.643Z,2.55
2023-03-15T00:29:56.331Z,2.50
2023-03-15T00:30:28.787Z,2.60
2023-03-15T00:31:05.352Z,2.33
2023-03-15T00:31:37.825Z,2.35
2023-03-15T00:32:10.258Z,2.90
2023-03-15T00:32:44.966Z,2.72
2023-03-15T00:33:17.405Z,2.28
2023-03-15T00:33:50.438Z,2.80
2023-03-15T00:34:26.236Z,2.63
2023-03-15T00:34:58.500Z,2.90
2023-03-15T00:35:31.264Z,3.03
2023-03-15T00:36:07.939Z,3.10
2023-03-15T00:36:44.034Z,3.00
2023-03-15T00:37:17.142Z,3.55
2023-03-15T00:37:49.625Z,3.45
2023-03-15T00:38:22.211Z,2.80
2023-03-15T00:38:56.054Z,2.72
2023-03-15T00:39:28.772Z,2.50
2023-03-15T00:40:01.245Z,2.72
2023-03-15T00:40:33.837Z,2.80
2023-03-15T00:41:06.390Z,2.95
2023-03-15T00:41:38.728Z,2.80
2023-03-15T00:42:11.487Z,2.88
2023-03-15T00:42:50.550Z,3.67
2023-03-15T00:43:23.638Z,3.60
2023-03-15T00:43:56.095Z,2.80
2023-03-15T00:44:29.399Z,2.88
2023-03-15T00:45:01.744Z,2.88
2023-03-15T00:45:35.577Z,2.70
2023-03-15T00:46:08.141Z,3.17
2023-03-15T00:46:40.562Z,3.00
2023-03-15T00:47:13.639Z,3.60
2023-03-15T00:47:48.843Z,2.80
2023-03-15T00:48:21.089Z,2.40
2023-03-15T00:48:53.425Z,2.80
2023-03-15T00:49:25.701Z,2.63
2023-03-15T00:49:58.058Z,3.03
2023-03-15T00:50:30.374Z,3.47
2023-03-15T00:51:07.223Z,3.25
2023-03-15T00:51:39.892Z,3.58
2023-03-15T00:52:12.775Z,3.28
2023-03-15T00:52:45.594Z,2.30
2023-03-15T00:53:18.271Z,2.72
2023-03-15T00:53:51.378Z,2.53
2023-03-15T00:54:25.065Z,2.45
2023-03-15T00:54:58.007Z,2.20
2023-03-15T00:55:30.558Z,1.90
2023-03-15T00:56:06.835Z,2.05
2023-03-15T00:56:39.131Z,1.80
2023-03-15T00:57:11.439Z,1.73
2023-03-15T00:57:44.520Z,1.60
2023-03-15T00:58:17.172Z,1.80
2023-03-15T00:58:50.126Z,1.67
2023-03-15T00:59:23.716Z,2.15
2023-03-15T00:59:56.110Z,2.20
2023-03-15T01:00:28.568Z,2.00
2023-03-15T01:01:01.515Z,1.98
2023-03-15T01:01:33.825Z,1.95
2023-03-15T01:02:06.597Z,1.80
2023-03-15T01:02:39.065Z,1.95
2023-03-15T01:03:11.564Z,2.03
2023-03-15T01:03:44.361Z,2.07
2023-03-15T01:04:16.695Z,2.10
2023-03-15T01:04:49.548Z,1.80
2023-03-15T01:05:22.149Z,2.10
2023-03-15T01:05:54.606Z,1.65
2023-03-15T01:06:28.611Z,1.80
2023-03-15T01:07:01.118Z,2.00
2023-03-15T01:07:36.337Z,2.05
2023-03-15T01:08:10.118Z,2.55
2023-03-15T01:08:43.565Z,1.90
2023-03-15T01:09:15.918Z,1.90
2023-03-15T01:09:49.178Z,2.38
2023-03-15T01:10:21.553Z,2.30
2023-03-15T01:10:54.080Z,2.20
2023-03-15T01:11:28.680Z,1.90
2023-03-15T01:12:02.903Z,1.83
2023-03-15T01:12:37.157Z,2.33
2023-03-15T01:13:09.477Z,2.30
2023-03-15T01:13:42.312Z,2.22
2023-03-15T01:14:15.496Z,1.98
2023-03-15T01:14:48.101Z,2.40
2023-03-15T01:15:21.229Z,2.55
2023-03-15T01:15:53.683Z,2.60
2023-03-15T01:16:27.097Z,2.35
2023-03-15T01:16:59.546Z,2.30
2023-03-15T01:17:32.106Z,2.08
2023-03-15T01:18:07.201Z,2.30
2023-03-15T01:18:39.912Z,2.42
2023-03-15T01:19:13.143Z,2.35
2023-03-15T01:19:45.389Z,2.38
2023-03-15T01:20:17.708Z,2.37
2023-03-15T01:20:49.919Z,2.10
2023-03-15T01:21:24.872Z,2.25
2023-03-15T01:21:57.084Z,2.85
2023-03-15T01:22:29.273Z,3.20
2023-03-15T01:23:01.576Z,3.00
2023-03-15T01:23:33.806Z,2.60
2023-03-15T01:24:06.227Z,2.35
2023-03-15T01:24:38.673Z,2.55
2023-03-15T01:25:11.161Z,2.30
2023-03-15T01:25:43.650Z,2.60
2023-03-15T01:26:17.491Z,2.58
2023-03-15T01:26:50.091Z,2.40
2023-03-15T01:27:22.599Z,2.25
2023-03-15T01:27:57.344Z,3.00
2023-03-15T01:28:29.824Z,2.75
2023-03-15T01:29:02.555Z,3.40
2023-03-15T01:29:35.809Z,3.03
2023-03-15T01:30:09.243Z,3.00
2023-03-15T01:30:41.639Z,2.72
2023-03-15T01:31:16.739Z,2.93
2023-03-15T01:31:50.030Z,2.60
2023-03-15T01:32:22.859Z,3.00
2023-03-15T01:32:55.473Z,3.10
2023-03-15T01:33:28.373Z,3.38
2023-03-15T01:34:01.327Z,2.75
2023-03-15T01:34:37.589Z,3.20
2023-03-15T01:35:10.412Z,2.40
2023-03-15T01:35:42.897Z,3.10
2023-03-15T01:36:15.473Z,2.70
2023-03-15T01:36:50.291Z,3.50
2023-03-15T01:37:24.903Z,3.05
2023-03-15T01:37:57.429Z,3.10
2023-03-15T01:38:30.273Z,3.28
2023-03-15T01:39:02.601Z,3.45
2023-03-15T01:39:44.400Z,2.80
2023-03-15T01:40:17.015Z,3.20
2023-03-15T01:40:50.164Z,3.03
2023-03-15T01:41:24.919Z,3.35
2023-03-15T01:41:57.928Z,2.88
2023-03-15T01:42:30.625Z,2.97
2023-03-15T01:43:03.297Z,3.70
2023-03-15T01:43:35.763Z,3.05
2023-03-15T01:44:12.953Z,3.35
2023-03-15T01:44:48.489Z,3.25
2023-03-15T01:45:39.450Z,3.50
2023-03-15T01:46:14.598Z,3.47
2023-03-15T01:46:49.374Z,2.92
2023-03-15T01:47:26.199Z,3.78
2023-03-15T01:47:59.825Z,3.50
2023-03-15T01:48:40.021Z,3.80
2023-03-15T01:49:27.364Z,3.40
2023-03-15T01:50:10.675Z,3.92
2023-03-15T01:50:44.021Z,4.00
2023-03-15T01:51:16.517Z,3.78
2023-03-15T01:51:54.988Z,3.67
2023-03-15T01:52:31.720Z,4.03
2023-03-15T01:53:06.456Z,3.95
2023-03-15T01:53:40.117Z,3.80
2023-03-15T01:54:22.144Z,3.75
2023-03-15T01:55:01.513Z,3.90
2023-03-15T01:55:35.056Z,3.60
2023-03-15T01:56:11.970Z,3.58
2023-03-15T01:56:47.210Z,3.83
2023-03-15T01:57:29.042Z,4.03
2023-03-15T01:58:08.141Z,3.88
2023-03-15T01:58:46.638Z,3.97
2023-03-15T01:59:22.204Z,3.88
2023-03-15T01:59:57.357Z,4.60
2023-03-15T02:00:29.984Z,4.03
2023-03-15T02:01:08.822Z,4.43
2023-03-15T02:01:46.198Z,4.25
2023-03-15T02:02:23.221Z,4.07
2023-03-15T02:03:16.386Z,4.18
2023-03-15T02:03:54.574Z,4.22
2023-03-15T02:04:32.952Z,3.95
2023-03-15T02:05:11.505Z,3.35
2023-03-15T02:05:47.744Z,4.15
2023-03-15T02:06:27.966Z,4.03
2023-03-15T02:07:02.495Z,3.65
2023-03-15T02:07:39.397Z,4.00
2023-03-15T02:08:12.820Z,4.10
2023-03-15T02:08:53.419Z,4.25
2023-03-15T02:09:32.656Z,3.97
2023-03-15T02:10:05.765Z,4.38
2023-03-15T02:10:45.430Z,3.83
2023-03-15T02:11:21.120Z,3.17
2023-03-15T02:11:54.532Z,3.92
2023-03-15T02:12:28.261Z,4.10
2023-03-15T02:13:01.158Z,4.10
2023-03-15T02:13:35.088Z,4.13
2023-03-15T02:14:13.362Z,4.25
2023-03-15T02:14:50.547Z,4.35
2023-03-15T02:15:24.725Z,4.03
2023-03-15T02:15:57.581Z,4.10
2023-03-15T02:16:36.267Z,3.30
2023-03-15T02:17:12.861Z,4.65
2023-03-15T02:17:47.270Z,3.20
2023-03-15T02:18:20.154Z,3.90
2023-03-15T02:18:52.518Z,3.88
2023-03-15T02:19:29.384Z,3.80
2023-03-15T02:20:10.702Z,3.70
2023-03-15T02:20:48.541Z,3.75
2023-03-15T02:21:20.798Z,4.25
2023-03-15T02:22:08.289Z,4.03
2023-03-15T02:23:01.531Z,3.78
2023-03-15T02:23:34.191Z,3.88
2023-03-15T02:24:12.792Z,3.80
2023-03-15T02:24:59.017Z,4.07
2023-03-15T02:25:44.004Z,3.70
2023-03-15T02:26:19.182Z,4.17
2023-03-15T02:26:55.632Z,3.30
2023-03-15T02:27:32.471Z,3.97
2023-03-15T02:28:06.862Z,3.53
2023-03-15T02:28:39.571Z,2.63
2023-03-15T02:29:11.912Z,2.97
2023-03-15T02:29:44.210Z,3.35
2023-03-15T02:30:17.928Z,3.53
2023-03-15T02:30:50.384Z,3.58
2023-03-15T02:31:22.907Z,2.92
2023-03-15T02:31:55.940Z,2.97
2023-03-15T02:32:31.176Z,3.22
2023-03-15T02:33:05.777Z,3.20
2023-03-15T02:33:45.601Z,3.25
2023-03-15T02:34:18.253Z,3.33
2023-03-15T02:34:50.596Z,3.28
2023-03-15T02:35:24.087Z,3.13
2023-03-15T02:36:07.144Z,3.05
2023-03-15T02:36:39.473Z,3.55
2023-03-15T02:37:11.948Z,3.03
2023-03-15T02:37:46.075Z,3.60
2023-03-15T02:38:18.874Z,3.40
2023-03-15T02:38:52.142Z,2.90
2023-03-15T02:39:26.070Z,3.35
2023-03-15T02:39:58.560Z,3.65
2023-03-15T02:40:31.726Z,3.05
2023-03-15T02:41:04.822Z,2.78
2023-03-15T02:41:38.086Z,3.17
2023-03-15T02:42:11.222Z,2.75
2023-03-15T02:42:43.770Z,3.03
2023-03-15T02:43:25.091Z,3.23
2023-03-15T02:44:07.826Z,2.90
2023-03-15T02:44:42.058Z,2.95
2023-03-15T02:45:14.670Z,3.20
2023-03-15T02:45:47.507Z,3.10
2023-03-15T02:46:20.363Z,3.08
2023-03-15T02:46:53.655Z,3.20
2023-03-15T02:47:28.067Z,2.67
2023-03-15T02:48:01.911Z,3.35
2023-03-15T02:48:34.731Z,3.03
2023-03-15T02:49:08.930Z,2.87
2023-03-15T02:49:43.914Z,2.60
2023-03-15T02:50:16.545Z,3.40
2023-03-15T02:50:48.827Z,3.17
2023-03-15T02:51:22.875Z,3.00
2023-03-15T02:51:56.742Z,3.28
2023-03-15T02:52:29.016Z,3.10
2023-03-15T02:53:03.232Z,3.28
2023-03-15T02:53:35.703Z,3.28
2023-03-15T02:54:08.230Z,3.28
2023-03-15T02:54:43.644Z,3.30
2023-03-15T02:55:17.257Z,2.90
2023-03-15T02:55:49.941Z,3.13
2023-03-15T02:56:22.476Z,3.58
2023-03-15T02:56:55.431Z,3.30
2023-03-15T02:57:28.161Z,2.92
2023-03-15T02:58:02.124Z,3.30
2023-03-15T02:58:34.853Z,3.10
2023-03-15T02:59:07.890Z,3.35
2023-03-15T02:59:42.542Z,3.10
2023-03-15T03:00:15.588Z,3.10
2023-03-15T03:00:49.058Z,3.38
2023-03-15T03:01:24.263Z,2.92
2023-03-15T03:01:56.662Z,3.15
2023-03-15T03:02:29.188Z,3.63
2023-03-15T03:03:01.537Z,3.00
2023-03-15T03:03:33.933Z,3.13
2023-03-15T03:04:07.027Z,3.40
2023-03-15T03:04:40.095Z,3.75
2023-03-15T03:05:13.210Z,2.70
2023-03-15T03:05:45.744Z,2.97
2023-03-15T03:06:19.161Z,3.30
2023-03-15T03:06:52.623Z,3.50
2023-03-15T03:07:28.521Z,3.90
2023-03-15T03:08:06.545Z,5.47
2023-03-15T03:08:47.479Z,3.65
2023-03-15T03:09:23.694Z,3.13
2023-03-15T03:09:56.447Z,3.22
2023-03-15T03:10:29.091Z,4.57
2023-03-15T03:11:03.731Z,2.97
2023-03-15T03:11:36.412Z,3.23
2023-03-15T03:12:08.952Z,2.97
2023-03-15T03:12:41.248Z,3.75
2023-03-15T03:13:15.105Z,5.38
2023-03-15T03:13:47.717Z,4.30
2023-03-15T03:14:19.997Z,3.55
2023-03-15T03:14:52.271Z,3.67
2023-03-15T03:15:27.914Z,3.70
2023-03-15T03:16:00.269Z,3.25
2023-03-15T03:16:36.033Z,3.15
2023-03-15T03:17:08.366Z,2.80
2023-03-15T03:17:40.735Z,2.60
2023-03-15T03:18:13.371Z,2.78
2023-03-15T03:18:45.845Z,4.30
2023-03-15T03:19:18.452Z,3.72
2023-03-15T03:19:52.017Z,3.72
2023-03-15T03:20:29.274Z,3.78
2023-03-15T03:21:03.255Z,3.38
2023-03-15T03:21:35.620Z,4.70
2023-03-15T03:22:08.016Z,3.20
2023-03-15T03:22:41.310Z,3.80
2023-03-15T03:23:14.262Z,4.65
2023-03-15T03:23:47.205Z,3.60
2023-03-15T03:24:20.413Z,3.42
2023-03-15T03:24:52.839Z,5.35
2023-03-15T03:25:27.575Z,4.47
2023-03-15T03:26:00.276Z,3.55
2023-03-15T03:26:32.999Z,4.68
2023-03-15T03:27:05.836Z,4.97
2023-03-15T03:27:41.331Z,4.53
2023-03-15T03:28:15.648Z,4.47
2023-03-15T03:28:48.348Z,4.60
2023-03-15T03:29:21.835Z,3.40
2023-03-15T03:29:55.154Z,3.80
2023-03-15T03:30:27.467Z,4.63
2023-03-15T03:31:00.087Z,4.60
2023-03-15T03:31:36.079Z,3.17
2023-03-15T03:32:09.705Z,4.00
2023-03-15T03:32:43.196Z,4.72
2023-03-15T03:33:15.802Z,4.80
2023-03-15T03:33:48.211Z,5.50
2023-03-15T03:34:21.002Z,4.00
2023-03-15T03:34:53.497Z,5.40
2023-03-15T03:35:27.734Z,4.05
2023-03-15T03:36:02.481Z,4.22
2023-03-15T03:36:35.821Z,4.07
2023-03-15T03:37:08.516Z,4.22
2023-03-15T03:38:01.361Z,3.45
2023-03-15T03:38:43.435Z,3.45
2023-03-15T03:39:16.157Z,3.78
2023-03-15T03:39:49.947Z,5.67
2023-03-15T03:40:22.521Z,5.10
2023-03-15T03:40:54.889Z,4.80
2023-03-15T03:41:27.683Z,4.07
2023-03-15T03:42:00.133Z,3.97
2023-03-15T03:42:33.024Z,4.07
2023-03-15T03:43:06.137Z,5.03
2023-03-15T03:43:38.540Z,4.05
2023-03-15T03:44:11.199Z,3.67
2023-03-15T03:44:44.520Z,6.72
2023-03-15T03:45:17.306Z,5.07
2023-03-15T03:45:51.474Z,3.90
2023-03-15T03:46:24.054Z,3.90
2023-03-15T03:46:58.602Z,4.85
2023-03-15T03:47:31.070Z,5.10
2023-03-15T03:48:03.510Z,4.80
2023-03-15T03:48:37.863Z,5.15
2023-03-15T03:49:12.556Z,5.53
2023-03-15T03:49:46.964Z,5.30
2023-03-15T03:50:19.364Z,4.22
2023-03-15T03:50:51.867Z,4.30
2023-03-15T03:51:24.274Z,3.78
2023-03-15T03:51:56.875Z,3.83
2023-03-15T03:52:29.415Z,4.20
2023-03-15T03:53:09.442Z,3.80
2023-03-15T03:53:41.741Z,3.28
2023-03-15T03:54:16.503Z,3.95
2023-03-15T03:54:49.792Z,3.75
2023-03-15T03:55:25.503Z,5.35
2023-03-15T03:55:59.010Z,6.68
2023-03-15T03:56:31.603Z,7.87
2023-03-15T03:57:04.138Z,4.90
2023-03-15T03:57:39.965Z,4.15
2023-03-15T03:58:13.752Z,4.20
2023-03-15T03:58:56.824Z,3.42
2023-03-15T03:59:36.484Z,4.13
2023-03-15T04:00:12.940Z,4.38
2023-03-15T04:00:47.644Z,3.38
2023-03-15T04:01:22.324Z,3.90
2023-03-15T04:01:57.145Z,3.33
2023-03-15T04:02:29.917Z,3.83
2023-03-15T04:03:06.319Z,3.65
2023-03-15T04:03:41.110Z,3.53
2023-03-15T04:04:19.952Z,3.00
2023-03-15T04:04:52.895Z,3.53
2023-03-15T04:05:26.578Z,3.28
2023-03-15T04:05:59.956Z,3.22
2023-03-15T04:06:34.420Z,3.33
2023-03-15T04:07:07.348Z,3.95
2023-03-15T04:07:42.626Z,3.67
2023-03-15T04:08:16.921Z,4.03
2023-03-15T04:08:49.758Z,3.03
2023-03-15T04:09:28.758Z,3.22
2023-03-15T04:10:02.699Z,3.20
2023-03-15T04:10:35.440Z,3.08
2023-03-15T04:11:08.184Z,3.50
2023-03-15T04:11:43.835Z,3.30
2023-03-15T04:12:16.394Z,3.42
2023-03-15T04:12:51.412Z,3.88
2023-03-15T04:13:24.769Z,3.45
2023-03-15T04:13:57.925Z,3.60
2023-03-15T04:14:31.489Z,3.63
2023-03-15T04:15:03.996Z,3.42
2023-03-15T04:15:39.057Z,3.72
2023-03-15T04:16:11.834Z,3.20
2023-03-15T04:17:04.000Z,3.33
2023-03-15T04:17:37.691Z,3.80
2023-03-15T04:18:10.417Z,3.08
2023-03-15T04:18:45.886Z,2.97
2023-03-15T04:19:18.455Z,3.58
2023-03-15T04:19:50.810Z,2.97
2023-03-15T04:20:29.663Z,3.08
2023-03-15T04:21:02.659Z,3.10
2023-03-15T04:21:36.179Z,3.00
2023-03-15T04:22:25.429Z,3.10
2023-03-15T04:23:21.494Z,2.78
2023-03-15T04:24:08.688Z,2.50
2023-03-15T04:25:02.520Z,3.13
2023-03-15T04:25:55.882Z,2.70
2023-03-15T04:26:51.107Z,2.75
2023-03-15T04:27:34.519Z,3.17
2023-03-15T04:28:19.748Z,2.60
2023-03-15T04:29:12.760Z,2.53
2023-03-15T04:30:11.882Z,2.88
2023-03-15T04:30:44.464Z,2.72
2023-03-15T04:31:38.100Z,2.53
2023-03-15T04:32:22.804Z,2.75
2023-03-15T04:33:17.950Z,2.45
2023-03-15T04:34:06.747Z,2.92
2023-03-15T04:34:52.022Z,2.40
2023-03-15T04:35:47.402Z,2.70
2023-03-15T04:36:38.620Z,2.28
2023-03-15T04:37:22.113Z,2.47
2023-03-15T04:38:15.020Z,2.42
2023-03-15T04:39:10.248Z,2.47
2023-03-15T04:39:54.617Z,2.33
2023-03-15T04:40:47.565Z,2.40
2023-03-15T04:41:45.983Z,2.38
2023-03-15T04:42:30.804Z,2.53
2023-03-15T04:43:22.165Z,2.25
2023-03-15T04:44:18.682Z,2.70
2023-03-15T04:45:14.124Z,2.35
2023-03-15T04:45:58.297Z,2.53
2023-03-15T04:46:49.031Z,2.88
2023-03-15T04:47:32.238Z,2.17
2023-03-15T04:48:21.688Z,2.20
2023-03-15T04:48:54.047Z,2.58
2023-03-15T04:49:45.105Z,2.50
2023-03-15T04:50:49.884Z,2.72
2023-03-15T04:51:40.920Z,2.78
2023-03-15T04:52:25.549Z,2.47
2023-03-15T04:53:09.823Z,2.60
2023-03-15T04:53:53.068Z,2.90
2023-03-15T04:54:44.536Z,2.40
2023-03-15T04:55:35.381Z,2.35
2023-03-15T04:56:30.795Z,2.17
2023-03-15T04:57:21.486Z,2.70
2023-03-15T04:58:14.300Z,2.75
2023-03-15T04:59:08.278Z,2.50
2023-03-15T04:59:57.214Z,2.80
2023-03-15T05:00:54.027Z,2.70
2023-03-15T05:01:52.966Z,3.00
2023-03-15T05:02:47.736Z,2.90
2023-03-15T05:03:58.563Z,2.80
2023-03-15T05:04:58.895Z,2.50
2023-03-15T05:06:08.461Z,2.85
2023-03-15T05:07:00.705Z,2.78
2023-03-15T05:07:51.745Z,2.83
2023-03-15T05:08:24.097Z,2.95
2023-03-15T05:09:25.459Z,2.58
2023-03-15T05:10:12.329Z,2.87
2023-03-15T05:10:53.108Z,2.90
2023-03-15T05:11:33.320Z,3.30
2023-03-15T05:12:21.656Z,2.90
2023-03-15T05:13:19.113Z,3.00
2023-03-15T05:14:03.404Z,3.38
2023-03-15T05:14:54.432Z,2.90
2023-03-15T05:15:48.497Z,3.35
2023-03-15T05:16:43.373Z,3.13
2023-03-15T05:17:48.872Z,2.75
2023-03-15T05:18:45.541Z,3.17
2023-03-15T05:19:37.914Z,3.03
2023-03-15T05:20:32.352Z,2.70
2023-03-15T05:21:25.324Z,3.22
2023-03-15T05:22:27.482Z,2.90
2023-03-15T05:23:18.430Z,3.00
2023-03-15T05:24:23.752Z,3.40
2023-03-15T05:25:15.768Z,2.70
2023-03-15T05:26:17.510Z,2.80
2023-03-15T05:27:01.805Z,3.40
2023-03-15T05:27:59.830Z,2.73
2023-03-15T05:28:57.221Z,3.25
2023-03-15T05:29:32.285Z,3.17
2023-03-15T05:30:36.738Z,3.53
2023-03-15T05:31:09.151Z,3.58
2023-03-15T05:32:00.086Z,3.22
2023-03-15T05:32:58.721Z,2.97
2023-03-15T05:33:49.585Z,3.30
2023-03-15T05:34:47.169Z,3.22
2023-03-15T05:35:49.260Z,2.80
2023-03-15T05:36:39.339Z,3.43
2023-03-15T05:37:32.639Z,3.35
2023-03-15T05:38:34.329Z,3.25
2023-03-15T05:39:24.962Z,3.30
2023-03-15T05:40:11.908Z,3.42
2023-03-15T05:41:19.815Z,2.88
2023-03-15T05:42:12.712Z,3.65
2023-03-15T05:42:53.768Z,3.78
2023-03-15T05:43:26.122Z,3.42
2023-03-15T05:44:13.550Z,3.20
2023-03-15T05:45:06.190Z,3.00
2023-03-15T05:45:58.969Z,3.50
2023-03-15T05:46:52.763Z,3.47
2023-03-15T05:47:44.253Z,3.30
2023-03-15T05:48:43.090Z,3.75
2023-03-15T05:49:21.643Z,3.30
2023-03-15T05:50:07.244Z,3.85
2023-03-15T05:50:59.084Z,3.58
2023-03-15T05:51:52.461Z,3.40
2023-03-15T05:52:45.041Z,3.13
2023-03-15T05:53:30.819Z,3.23
2023-03-15T05:54:21.934Z,3.53
2023-03-15T05:54:54.275Z,3.67
2023-03-15T05:55:55.948Z,4.00
2023-03-15T05:56:44.361Z,3.38
2023-03-15T05:57:40.918Z,3.10
2023-03-15T05:58:35.518Z,3.53
2023-03-15T05:59:26.263Z,3.28
2023-03-15T06:00:19.552Z,3.08
2023-03-15T06:00:55.824Z,3.42
2023-03-15T06:01:46.545Z,3.30
2023-03-15T06:02:25.945Z,3.42
2023-03-15T06:03:16.307Z,3.80
2023-03-15T06:04:02.726Z,3.42
2023-03-15T06:04:38.520Z,3.38
2023-03-15T06:05:12.518Z,3.70
2023-03-15T06:05:45.210Z,3.58
2023-03-15T06:06:22.124Z,3.80
2023-03-15T06:06:55.314Z,3.50
2023-03-15T06:07:28.105Z,3.20
2023-03-15T06:08:00.730Z,3.70
2023-03-15T06:08:33.203Z,3.03
2023-03-15T06:09:06.210Z,3.80
2023-03-15T06:09:38.798Z,3.42
2023-03-15T06:10:11.624Z,3.92
2023-03-15T06:10:44.188Z,3.55
2023-03-15T06:11:17.510Z,4.03
2023-03-15T06:11:51.182Z,4.07
2023-03-15T06:12:23.915Z,4.13
2023-03-15T06:12:56.314Z,3.30
2023-03-15T06:13:29.963Z,3.37
2023-03-15T06:14:03.376Z,3.45
2023-03-15T06:14:56.816Z,3.45
2023-03-15T06:15:29.362Z,4.20
2023-03-15T06:16:02.082Z,3.70
2023-03-15T06:16:35.773Z,3.70
2023-03-15T06:17:09.564Z,3.75
2023-03-15T06:17:43.388Z,3.47
2023-03-15T06:18:17.699Z,3.78
2023-03-15T06:18:52.503Z,3.28
2023-03-15T06:19:24.930Z,4.00
2023-03-15T06:19:59.797Z,3.60
2023-03-15T06:20:32.664Z,3.38
2023-03-15T06:21:11.330Z,3.60
2023-03-15T06:21:44.323Z,3.47
2023-03-15T06:22:25.704Z,3.22
2023-03-15T06:23:02.360Z,3.45
2023-03-15T06:23:42.505Z,3.88
2023-03-15T06:24:15.929Z,4.00
2023-03-15T06:24:48.276Z,3.45
2023-03-15T06:25:21.156Z,3.90
2023-03-15T06:25:53.691Z,3.53
2023-03-15T06:26:27.165Z,3.38
2023-03-15T06:27:04.346Z,3.50
2023-03-15T06:27:37.339Z,3.90
2023-03-15T06:28:10.101Z,3.20
2023-03-15T06:28:47.089Z,3.22
2023-03-15T06:29:20.148Z,3.50
2023-03-15T06:29:54.148Z,3.60
2023-03-15T06:30:28.786Z,3.13
2023-03-15T06:31:08.589Z,3.37
2023-03-15T06:31:45.670Z,3.00
2023-03-15T06:32:18.252Z,3.83
2023-03-15T06:32:50.656Z,3.72
2023-03-15T06:33:24.641Z,3.45
2023-03-15T06:33:57.529Z,3.70
2023-03-15T06:34:30.247Z,3.72
2023-03-15T06:35:03.176Z,3.60
2023-03-15T06:35:35.924Z,3.47
2023-03-15T06:36:08.777Z,3.78
2023-03-15T06:36:42.654Z,3.90
2023-03-15T06:37:22.727Z,3.78
2023-03-15T06:38:01.929Z,3.92
2023-03-15T06:38:34.976Z,4.20
2023-03-15T06:39:07.310Z,3.50
2023-03-15T06:39:40.686Z,3.17
2023-03-15T06:40:13.304Z,3.88
2023-03-15T06:40:45.736Z,3.85
2023-03-15T06:41:18.513Z,4.25
2023-03-15T06:41:53.753Z,3.45
2023-03-15T06:42:27.833Z,3.30
2023-03-15T06:43:06.128Z,3.55
2023-03-15T06:43:39.173Z,3.45
2023-03-15T06:44:12.008Z,3.60
2023-03-15T06:44:45.464Z,3.90
2023-03-15T06:45:19.174Z,3.20
2023-03-15T06:45:53.905Z,3.42
2023-03-15T06:46:26.721Z,3.20
2023-03-15T06:46:59.229Z,2.85
2023-03-15T06:47:33.104Z,2.90
2023-03-15T06:48:06.752Z,2.77
2023-03-15T06:48:39.298Z,2.90
2023-03-15T06:49:12.936Z,3.38
2023-03-15T06:49:45.764Z,3.05
2023-03-15T06:50:19.083Z,2.55
2023-03-15T06:50:52.284Z,2.97
2023-03-15T06:51:25.074Z,2.92
2023-03-15T06:51:57.766Z,2.92
2023-03-15T06:52:30.085Z,2.97
2023-03-15T06:53:03.252Z,3.10
2023-03-15T06:53:35.697Z,3.03
2023-03-15T06:54:08.441Z,3.25
2023-03-15T06:54:41.204Z,2.85
2023-03-15T06:55:18.400Z,3.13
2023-03-15T06:55:52.413Z,3.22
2023-03-15T06:56:24.767Z,2.78
2023-03-15T06:56:57.607Z,2.53
2023-03-15T06:57:29.985Z,2.83
2023-03-15T06:58:02.475Z,3.33
2023-03-15T06:58:34.739Z,3.28
2023-03-15T06:59:07.693Z,3.23
2023-03-15T06:59:40.277Z,2.78
2023-03-15T07:00:13.078Z,3.15
2023-03-15T07:00:45.340Z,2.78
2023-03-15T07:01:17.574Z,3.10
2023-03-15T07:01:49.835Z,2.95
2023-03-15T07:02:22.162Z,2.80
2023-03-15T07:02:54.620Z,3.10
2023-03-15T07:03:27.122Z,3.40
2023-03-15T07:03:59.655Z,3.08
2023-03-15T07:04:32.330Z,3.10
2023-03-15T07:05:05.038Z,3.05
2023-03-15T07:05:37.559Z,3.28
2023-03-15T07:06:09.897Z,3.50
2023-03-15T07:06:42.280Z,2.75
2023-03-15T07:07:14.883Z,2.72
2023-03-15T07:07:47.184Z,2.35
2023-03-15T07:08:21.271Z,2.30
2023-03-15T07:08:53.546Z,2.72
2023-03-15T07:09:25.956Z,2.35
2023-03-15T07:09:58.605Z,2.80
2023-03-15T07:10:31.172Z,2.47
2023-03-15T07:11:04.056Z,3.13
2023-03-15T07:11:36.817Z,2.42
2023-03-15T07:12:10.112Z,2.47
2023-03-15T07:12:42.447Z,2.70
2023-03-15T07:13:15.269Z,2.83
2023-03-15T07:13:47.709Z,2.50
2023-03-15T07:14:20.188Z,2.63
2023-03-15T07:14:52.977Z,2.67
2023-03-15T07:15:25.579Z,2.63
2023-03-15T07:15:58.264Z,2.80
2023-03-15T07:16:30.987Z,2.90
2023-03-15T07:17:03.952Z,2.80
2023-03-15T07:17:36.610Z,2.92
2023-03-15T07:18:08.891Z,3.08
2023-03-15T07:18:41.193Z,2.90
2023-03-15T07:19:13.535Z,2.25
2023-03-15T07:19:55.893Z,2.55
2023-03-15T07:20:28.762Z,2.15
2023-03-15T07:21:02.174Z,2.77
2023-03-15T07:21:34.649Z,2.35
2023-03-15T07:22:07.110Z,2.45
2023-03-15T07:22:39.450Z,2.40
2023-03-15T07:23:12.110Z,2.90
2023-03-15T07:23:45.299Z,1.95
2023-03-15T07:24:17.985Z,2.35
2023-03-15T07:24:50.298Z,2.40
2023-03-15T07:25:24.311Z,2.60
2023-03-15T07:25:56.896Z,2.55
2023-03-15T07:26:29.246Z,2.23
2023-03-15T07:27:01.563Z,2.30
2023-03-15T07:27:34.038Z,2.60
2023-03-15T07:28:06.378Z,2.28
2023-03-15T07:28:38.813Z,2.38
2023-03-15T07:29:11.297Z,2.40
2023-03-15T07:29:43.769Z,2.47
2023-03-15T07:30:16.271Z,2.28
2023-03-15T07:30:55.382Z,2.40
2023-03-15T07:31:27.770Z,2.25
2023-03-15T07:32:01.601Z,2.70
2023-03-15T07:32:34.146Z,2.58
2023-03-15T07:33:06.628Z,3.00
2023-03-15T07:33:39.708Z,2.53
2023-03-15T07:34:12.455Z,1.88
2023-03-15T07:34:45.005Z,2.25
2023-03-15T07:35:18.349Z,2.70
2023-03-15T07:35:51.472Z,2.67
2023-03-15T07:36:24.224Z,2.60
2023-03-15T07:36:56.627Z,2.63
2023-03-15T07:37:29.422Z,2.63
2023-03-15T07:38:01.791Z,2.50
2023-03-15T07:38:34.721Z,2.80
2023-03-15T07:39:07.190Z,2.85
2023-03-15T07:39:39.668Z,2.38
2023-03-15T07:40:12.920Z,2.28
2023-03-15T07:40:45.329Z,2.25
2023-03-15T07:41:17.810Z,2.47
2023-03-15T07:42:01.480Z,2.50
2023-03-15T07:42:43.994Z,2.00
2023-03-15T07:43:16.911Z,2.50
2023-03-15T07:43:49.184Z,2.47
2023-03-15T07:44:23.812Z,2.40
2023-03-15T07:44:56.232Z,2.13
2023-03-15T07:45:28.678Z,2.55
2023-03-15T07:46:02.054Z,2.28
2023-03-15T07:46:34.853Z,2.15
2023-03-15T07:47:07.396Z,2.47
2023-03-15T07:47:40.237Z,2.55
2023-03-15T07:48:12.775Z,2.63
2023-03-15T07:48:45.449Z,2.47
2023-03-15T07:49:17.825Z,2.10
2023-03-15T07:49:50.287Z,2.33
2023-03-15T07:50:22.849Z,2.30
2023-03-15T07:50:55.424Z,2.00
2023-03-15T07:51:27.723Z,2.15
2023-03-15T07:52:00.070Z,2.00
2023-03-15T07:52:32.604Z,2.20
2023-03-15T07:53:05.122Z,2.55
2023-03-15T07:53:38.010Z,2.35
2023-03-15T07:54:10.776Z,2.37
2023-03-15T07:54:43.434Z,2.50
2023-03-15T07:55:15.770Z,2.97
2023-03-15T07:55:48.734Z,2.25
2023-03-15T07:56:21.520Z,2.20
2023-03-15T07:56:53.801Z,2.40
2023-03-15T07:57:28.420Z,2.50
2023-03-15T07:58:01.771Z,2.70
2023-03-15T07:58:34.188Z,2.80
2023-03-15T07:59:06.465Z,2.72
2023-03-15T07:59:38.836Z,2.97
2023-03-15T08:00:12.588Z,3.10
2023-03-15T08:00:45.349Z,3.65
2023-03-15T08:01:17.796Z,3.22
2023-03-15T08:01:50.219Z,3.13
2023-03-15T08:02:22.789Z,2.40
2023-03-15T08:02:55.199Z,3.00
2023-03-15T08:03:28.116Z,2.90
2023-03-15T08:04:00.636Z,3.25
2023-03-15T08:04:35.641Z,2.70
2023-03-15T08:05:09.976Z,2.30
2023-03-15T08:05:42.400Z,2.45
2023-03-15T08:06:14.887Z,2.65
2023-03-15T08:06:47.223Z,2.10